Terminal Aerodrome Forecast
Issued by NWS

Home | Current Version | Previous Version | Text Only | Print | Product List | Glossary On
Versions: 1 2 3 4 5 6 7 8 9 10 11 12 13 14 15
441
FTUS43 KSGF 311040 AAA
TAFBBG
TAF AMD
KBBG 311040Z 3111/0106 VRB03KT 6SM BR BKN080
      TEMPO 3111/3113 3SM BR FEW003 SCT080
     FM311400 14004KT P6SM BKN060
     FM311800 14004KT P6SM VCTS SCT040CB BKN070
     FM010000 15004KT P6SM VCSH BKN090=

USA.gov is the U.S. government's official web portal to all federal, state and local government web resources and services.